TimeCEST,TemperatureF,Dew PointF,Humidity,Sea Level PressureIn,VisibilityMPH,Wind Direction,Wind SpeedMPH,Gust SpeedMPH,PrecipitationIn,Events,Conditions,WindDirDegrees,DateUTC
12:25 AM,60.8,57.2,88,30.06,6.2,South,4.6,-,N/A,,Unknown,190,2013-08-15 22:25:00
12:55 AM,60.8,57.2,88,30.06,6.2,South,4.6,-,N/A,,Unknown,190,2013-08-15 22:55:00
1:25 AM,60.8,57.2,88,30.06,6.2,South,5.8,-,N/A,,Unknown,190,2013-08-15 23:25:00
1:55 AM,59.0,57.2,94,30.06,6.2,South,5.8,-,N/A,,Unknown,190,2013-08-15 23:55:00
2:25 AM,59.0,57.2,94,30.06,6.2,South,5.8,-,N/A,,Unknown,190,2013-08-16 00:25:00
2:55 AM,59.0,57.2,94,30.06,6.2,South,5.8,-,N/A,,Partly Cloudy,190,2013-08-16 00:55:00
3:25 AM,59.0,55.4,88,30.06,6.2,South,5.8,-,N/A,,Unknown,190,2013-08-16 01:25:00
3:55 AM,59.0,55.4,88,30.06,6.2,South,4.6,-,N/A,,Unknown,190,2013-08-16 01:55:00
4:25 AM,57.2,55.4,94,30.04,6.2,South,5.8,-,N/A,,Unknown,190,2013-08-16 02:25:00
4:55 AM,57.2,55.4,94,30.04,6.2,South,6.9,-,N/A,,Unknown,180,2013-08-16 02:55:00
5:25 AM,57.2,55.4,94,30.04,6.2,SSW,4.6,-,N/A,,Partly Cloudy,200,2013-08-16 03:25:00
5:55 AM,57.2,53.6,88,30.04,6.2,South,4.6,-,N/A,,Unknown,190,2013-08-16 03:55:00
6:25 AM,57.2,55.4,94,30.04,6.2,South,3.5,-,N/A,,Unknown,190,2013-08-16 04:25:00
6:55 AM,55.4,53.6,94,30.04,6.2,South,5.8,-,N/A,,Unknown,180,2013-08-16 04:55:00
7:25 AM,59.0,55.4,88,30.04,6.2,South,8.1,-,N/A,,Unknown,180,2013-08-16 05:25:00
7:55 AM,60.8,57.2,88,30.04,6.2,South,5.8,-,N/A,,Unknown,180,2013-08-16 05:55:00
8:10 AM,60.8,57.2,88,30.04,6.2,South,4.6,-,N/A,,Mostly Cloudy,180,2013-08-16 06:10:00
8:25 AM,62.6,57.2,82,30.04,6.2,South,6.9,-,N/A,,Scattered Clouds,180,2013-08-16 06:25:00
8:55 AM,66.2,57.2,73,30.04,6.2,South,8.1,-,N/A,,Partly Cloudy,190,2013-08-16 06:55:00
9:25 AM,68.0,57.2,68,30.04,6.2,South,9.2,-,N/A,,Partly Cloudy,190,2013-08-16 07:25:00
9:55 AM,68.0,57.2,68,30.04,6.2,South,10.4,-,N/A,,Mostly Cloudy,190,2013-08-16 07:55:00
10:25 AM,71.6,57.2,60,30.04,6.2,SSW,10.4,-,N/A,,Overcast,200,2013-08-16 08:25:00
10:55 AM,71.6,57.2,60,30.01,6.2,SSW,10.4,-,N/A,,Partly Cloudy,200,2013-08-16 08:55:00
11:25 AM,75.2,57.2,53,30.01,6.2,SSW,10.4,-,N/A,,Unknown,210,2013-08-16 09:25:00
11:55 AM,77.0,57.2,50,30.01,6.2,SSW,13.8,-,N/A,,Unknown,200,2013-08-16 09:55:00
12:25 PM,78.8,57.2,47,30.01,6.2,SSW,12.7,-,N/A,,Unknown,210,2013-08-16 10:25:00
12:26 PM,78.8,57.2,47,30.01,6.2,SSW,15.0,-,N/A,,Unknown,200,2013-08-16 10:26:00
12:55 PM,80.6,57.2,45,30.01,6.2,SSW,11.5,-,N/A,,Partly Cloudy,210,2013-08-16 10:55:00
1:25 PM,78.8,57.2,47,29.98,6.2,SSW,13.8,-,N/A,,Unknown,210,2013-08-16 11:25:00
1:55 PM,80.6,55.4,42,29.98,6.2,SW,13.8,-,N/A,,Unknown,220,2013-08-16 11:55:00
2:25 PM,80.6,55.4,42,29.98,6.2,SSW,11.5,-,N/A,,Partly Cloudy,210,2013-08-16 12:25:00
2:55 PM,80.6,55.4,42,29.98,6.2,SW,10.4,-,N/A,,Partly Cloudy,220,2013-08-16 12:55:00
3:25 PM,82.4,57.2,42,29.98,6.2,SW,10.4,-,N/A,,Partly Cloudy,220,2013-08-16 13:25:00
3:55 PM,80.6,55.4,42,29.98,6.2,SW,10.4,-,N/A,,Scattered Clouds,230,2013-08-16 13:55:00
4:20 PM,80.6,55.4,42,29.98,6.2,SW,9.2,-,N/A,,Mostly Cloudy,220,2013-08-16 14:20:00
4:25 PM,78.8,59.0,51,29.95,6.2,WSW,10.4,-,N/A,,Mostly Cloudy,240,2013-08-16 14:25:00
4:55 PM,73.4,57.2,57,29.98,6.2,NW,16.1,-,N/A,,Mostly Cloudy,310,2013-08-16 14:55:00
5:25 PM,71.6,55.4,57,29.98,6.2,WNW,16.1,-,N/A,,Overcast,300,2013-08-16 15:25:00
5:55 PM,69.8,55.4,60,29.98,6.2,NW,11.5,-,N/A,,Overcast,310,2013-08-16 15:55:00
6:25 PM,68.0,53.6,60,29.98,6.2,WNW,10.4,-,N/A,,Overcast,300,2013-08-16 16:25:00
6:55 PM,68.0,53.6,60,29.98,6.2,NW,10.4,-,N/A,,Overcast,310,2013-08-16 16:55:00
7:25 PM,66.2,55.4,68,29.98,6.2,WNW,6.9,-,N/A,,Drizzle,290,2013-08-16 17:25:00
7:55 PM,66.2,55.4,68,29.98,6.2,NNW,1.2,-,N/A,,Drizzle,330,2013-08-16 17:55:00
8:25 PM,66.2,55.4,68,29.98,6.2,ENE,1.2,-,N/A,,Overcast,60,2013-08-16 18:25:00
8:55 PM,64.4,57.2,77,29.98,6.2,ESE,1.2,-,N/A,,Mostly Cloudy,120,2013-08-16 18:55:00
9:25 PM,64.4,57.2,77,30.01,6.2,SW,3.5,-,N/A,,Mostly Cloudy,230,2013-08-16 19:25:00
9:55 PM,64.4,55.4,73,30.01,6.2,WSW,3.5,-,N/A,,Mostly Cloudy,240,2013-08-16 19:55:00
10:25 PM,64.4,55.4,73,30.01,6.2,WSW,3.5,-,N/A,Rain,Light Rain,250,2013-08-16 20:25:00
10:40 PM,62.6,57.2,82,30.01,3.7,WSW,2.3,-,N/A,Rain,Light Rain,250,2013-08-16 20:40:00
10:44 PM,62.6,57.2,82,30.01,6.2,WSW,3.5,-,N/A,Rain,Light Rain Showers,250,2013-08-16 20:44:00
10:55 PM,62.6,57.2,82,30.01,6.2,SW,3.5,-,N/A,Rain,Light Rain,230,2013-08-16 20:55:00
11:25 PM,60.8,59.0,94,30.01,6.2,SW,2.3,-,N/A,,Overcast,220,2013-08-16 21:25:00
11:55 PM,60.8,59.0,94,30.01,6.2,West,2.3,-,N/A,,Overcast,280,2013-08-16 21:55:00